Time;durP1;ratioP1;P1;durP2;ratioP2;P2;SDS_P1;SDS_P2;PMS_P1;PMS_P2;Temp;Humidity;BMP_temperature;BMP_pressure;BME280_temperature;BME280_humidity;BME280_pressure;Samples;Min_cycle;Max_cycle;Signal;HPM_P1;HPM_P2
2022/01/30 00:00:09;;;;;;;;;;;;;;;;;;;;;
2022/01/30 00:03:05;;;;;;;;;;;;;;;;;;;;;
2022/01/30 00:08:52;;;;;;;;;;;;;;;;;;;;;
2022/01/30 00:11:40;;;;;;;;;;;3.40;99.90;;;;;;5106555;28;20252;-90
2022/01/30 00:14:12;;;;;;;;;;;4.90;99.90;;;;;;5087809;28;19928;-88
2022/01/30 00:16:37;;;;;;;;;;;4.40;99.90;;;;;;5083129;28;19954;-89
2022/01/30 00:19:24;;;;;;;;;;;4.50;99.90;;;;;;5077866;28;20375;-88
2022/01/30 00:22:00;;;;;;;;;;;4.80;99.90;;;;;;5078078;28;20233;-88
2022/01/30 00:24:42;;;;;;;;;;;4.70;99.90;;;;;;5095065;28;20417;-88
2022/01/30 00:27:17;;;;;;;;;;;5.20;99.90;;;;;;5095217;28;19922;-89
2022/01/30 00:29:42;;;;;;;;;;;5.50;99.90;;;;;;5078790;28;20322;-89
2022/01/30 00:32:08;;;;;;;;;;;5.90;99.90;;;;;;5094139;28;19947;-88
2022/01/30 00:34:33;;;;;;;;;;;5.00;99.90;;;;;;5081396;28;20019;-88
2022/01/30 00:37:01;;;;;;;;;;;5.10;99.90;;;;;;5082091;28;20319;-88
2022/01/30 00:39:27;;;;;;;;;;;5.10;99.90;;;;;;5064714;28;20008;-89
2022/01/30 00:41:52;;;;;;;;;;;6.10;99.90;;;;;;5081606;28;20025;-89
2022/01/30 00:44:18;;;;;;;;;;;6.10;99.90;;;;;;5065313;28;19922;-89
2022/01/30 00:46:44;;;;;;;;;;;5.20;99.90;;;;;;5082027;28;20334;-88
2022/01/30 00:49:13;;;;;;;;;;;5.10;99.90;;;;;;5064788;28;20286;-89
2022/01/30 00:51:38;;;;;;;;;;;6.30;99.90;;;;;;5064813;28;19921;-89
2022/01/30 00:54:04;;;;;;;;;;;6.60;99.90;;;;;;5064525;28;19929;-88
2022/01/30 00:56:30;;;;;;;;;;;5.20;99.90;;;;;;5081873;28;19921;-90
2022/01/30 00:58:58;;;;;;;;;;;5.10;99.90;;;;;;5082043;28;19921;-88
2022/01/30 01:01:23;;;;;;;;;;;5.10;99.90;;;;;;5064699;28;19932;-89
2022/01/30 01:03:49;;;;;;;;;;;5.10;99.90;;;;;;5064568;28;19921;-87
2022/01/30 01:06:22;;;;;;;;;;;5.00;99.90;;;;;;5064678;28;19929;-89
2022/01/30 01:08:59;;;;;;;;;;;6.00;99.90;;;;;;5065007;28;19922;-88
2022/01/30 01:20:53;;;;;;;;;;;6.30;99.90;;;;;;5098493;28;19921;-90
2022/01/30 01:24:58;;;;;;;;;;;4.30;99.90;;;;;;5081503;28;19928;-90
2022/01/30 01:27:25;;;;;;;;;;;4.80;99.90;;;;;;5064805;28;19922;-89
2022/01/30 01:30:01;;;;;;;;;;;4.30;99.90;;;;;;5064485;28;19976;-89
2022/01/30 01:32:27;;;;;;;;;;;4.10;99.90;;;;;;5064205;28;20039;-88
2022/01/30 01:34:55;;;;;;;;;;;4.30;99.90;;;;;;5081099;28;19981;-89
2022/01/30 01:37:21;;;;;;;;;;;5.00;99.90;;;;;;5064383;28;19922;-88
2022/01/30 01:39:49;;;;;;;;;;;4.60;99.90;;;;;;5081383;28;19948;-89
2022/01/30 01:42:15;;;;;;;;;;;5.00;99.90;;;;;;5064493;28;20088;-89
2022/01/30 01:45:01;;;;;;;;;;;4.50;99.90;;;;;;5079764;28;19921;-88
2022/01/30 01:47:33;;;;;;;;;;;6.00;99.90;;;;;;5064713;28;19949;-90
2022/01/30 01:50:02;;;;;;;;;;;4.90;99.90;;;;;;5063781;28;20009;-89
2022/01/30 01:52:30;;;;;;;;;;;4.70;99.90;;;;;;5080543;28;19933;-88
2022/01/30 01:54:56;;;;;;;;;;;4.90;99.90;;;;;;5063770;28;20043;-89
2022/01/30 01:57:22;;;;;;;;;;;5.20;99.90;;;;;;5080262;28;20382;-89
2022/01/30 01:59:48;;;;;;;;;;;5.00;99.90;;;;;;5080488;28;19923;-89
2022/01/30 02:02:18;;;;;;;;;;;5.70;99.90;;;;;;5063398;28;19932;-89
2022/01/30 02:04:46;;;;;;;;;;;4.40;99.90;;;;;;5083077;28;19922;-88
2022/01/30 02:09:59;;;;;;;;;;;6.10;99.90;;;;;;5103557;27;19975;-89
2022/01/30 02:12:33;;;;;;;;;;;4.90;99.90;;;;;;5084242;28;19929;-89
2022/01/30 02:15:31;;;;;;;;;;;4.10;99.90;;;;;;5084804;28;20383;-90
2022/01/30 02:23:58;;;;;;;;;;;4.00;99.90;;;;;;5085741;28;19921;-89
2022/01/30 02:26:19;;;;;;;;;;;4.50;99.90;;;;;;5103448;27;19925;-89
2022/01/30 02:28:49;;;;;;;;;;;6.10;99.90;;;;;;5083727;28;19961;-87
2022/01/30 02:31:19;;;;;;;;;;;4.30;99.90;;;;;;5101057;28;19947;-88
2022/01/30 02:33:47;;;;;;;;;;;4.80;99.90;;;;;;5065722;28;19922;-89
2022/01/30 02:36:15;;;;;;;;;;;4.90;99.90;;;;;;5066529;28;19933;-88
2022/01/30 02:38:41;;;;;;;;;;;4.90;99.90;;;;;;5083268;28;20560;-88
2022/01/30 02:41:09;;;;;;;;;;;6.10;99.90;;;;;;5082761;28;19925;-89
2022/01/30 02:43:42;;;;;;;;;;;4.90;99.90;;;;;;5083683;28;20011;-89
2022/01/30 02:46:24;;;;;;;;;;;5.30;99.90;;;;;;5067092;28;19921;-87
2022/01/30 02:48:53;;;;;;;;;;;4.60;99.90;;;;;;5085079;28;20016;-89
2022/01/30 02:51:22;;;;;;;;;;;4.40;99.90;;;;;;5083506;28;19925;-89
2022/01/30 02:54:05;;;;;;;;;;;4.50;99.90;;;;;;5082754;28;19944;-89
2022/01/30 02:56:40;;;;;;;;;;;;;;;;;;;;;
2022/01/30 02:59:06;;;;;;;;;;;4.70;99.90;;;;;;5101220;27;20324;-89
2022/01/30 03:01:34;;;;;;;;;;;4.90;99.90;;;;;;5082465;28;19922;-88
2022/01/30 03:04:05;;;;;;;;;;;5.00;99.90;;;;;;5082816;28;19931;-88
2022/01/30 03:06:31;;;;;;;;;;;6.10;99.90;;;;;;5100045;28;19928;-90
2022/01/30 03:08:57;;;;;;;;;;;4.80;99.90;;;;;;5065837;28;20337;-88
2022/01/30 03:11:27;;;;;;;;;;;4.60;99.90;;;;;;5083093;28;19974;-89
2022/01/30 03:13:53;;;;;;;;;;;5.40;99.90;;;;;;5099655;28;19977;-89
2022/01/30 03:16:21;;;;;;;;;;;5.10;99.90;;;;;;5099345;28;19928;-89
2022/01/30 03:18:46;;;;;;;;;;;8.10;99.90;;;;;;5066071;28;20015;-88
2022/01/30 03:21:13;;;;;;;;;;;4.40;99.90;;;;;;5065756;28;20021;-90
2022/01/30 03:23:41;;;;;;;;;;;5.90;99.90;;;;;;5082493;28;19921;-89
2022/01/30 03:26:10;;;;;;;;;;;4.90;99.90;;;;;;5066327;28;19940;-91
2022/01/30 03:28:38;;;;;;;;;;;4.60;99.90;;;;;;5083302;28;19921;-88
2022/01/30 03:31:06;;;;;;;;;;;4.80;99.90;;;;;;5066210;28;19921;-89
2022/01/30 03:33:32;;;;;;;;;;;5.30;99.90;;;;;;5099681;28;19928;-88
2022/01/30 03:35:58;;;;;;;;;;;4.70;99.90;;;;;;5100188;28;19921;-89
2022/01/30 03:38:26;;;;;;;;;;;5.90;99.90;;;;;;5082214;28;20282;-89
2022/01/30 03:41:09;;;;;;;;;;;4.70;99.90;;;;;;5065866;28;19925;-90
2022/01/30 03:43:37;;;;;;;;;;;6.60;99.90;;;;;;5082560;28;19930;-90
2022/01/30 03:46:12;;;;;;;;;;;5.30;99.90;;;;;;5082685;28;19964;-89
2022/01/30 03:48:55;;;;;;;;;;;4.30;99.90;;;;;;5065738;28;19921;-91
2022/01/30 03:51:23;;;;;;;;;;;4.60;99.90;;;;;;5082138;28;19921;-90
2022/01/30 03:53:48;;;;;;;;;;;5.20;99.90;;;;;;5082916;28;19925;-89
2022/01/30 03:56:23;;;;;;;;;;;6.60;99.90;;;;;;5082506;28;19981;-90
2022/01/30 03:58:51;;;;;;;;;;;6.80;99.90;;;;;;5084064;28;19925;-90
2022/01/30 04:01:17;;;;;;;;;;;5.80;99.90;;;;;;5065988;28;19929;-89
2022/01/30 04:03:42;;;;;;;;;;;6.00;99.90;;;;;;5064793;28;20401;-89
2022/01/30 04:06:12;;;;;;;;;;;6.50;99.90;;;;;;5065292;28;19922;-90
2022/01/30 04:08:38;;;;;;;;;;;5.50;99.90;;;;;;5068202;28;20317;-88
2022/01/30 04:11:06;;;;;;;;;;;5.60;99.90;;;;;;5069352;28;19921;-89
2022/01/30 04:13:35;;;;;;;;;;;5.70;99.90;;;;;;5086131;28;20282;-89
2022/01/30 04:16:05;;;;;;;;;;;5.70;99.90;;;;;;5086105;28;19921;-87
2022/01/30 04:18:31;;;;;;;;;;;5.40;99.90;;;;;;5085804;28;19921;-89
2022/01/30 04:20:57;;;;;;;;;;;5.20;99.90;;;;;;5085079;28;19932;-89
2022/01/30 04:23:30;;;;;;;;;;;4.90;99.90;;;;;;5085199;28;20009;-89
2022/01/30 04:25:55;;;;;;;;;;;4.60;99.90;;;;;;5069053;28;20275;-89
2022/01/30 04:28:24;;;;;;;;;;;5.00;99.90;;;;;;5069720;28;19966;-89
2022/01/30 04:30:50;;;;;;;;;;;3.50;99.90;;;;;;5068357;28;19940;-88
2022/01/30 04:33:18;;;;;;;;;;;4.40;99.90;;;;;;5085320;28;19922;-89
2022/01/30 04:35:44;;;;;;;;;;;3.80;99.90;;;;;;5068438;28;19921;-90
2022/01/30 04:38:21;;;;;;;;;;;4.20;99.90;;;;;;5068661;28;19929;-88
2022/01/30 04:41:20;;;;;;;;;;;4.20;99.90;;;;;;5070160;28;19925;-88
2022/01/30 04:52:17;;;;;;;;;;;;;;;;;;;;;
2022/01/30 04:57:52;;;;;;;;;;;4.20;99.90;;;;;;5105578;27;19921;-89
2022/01/30 05:00:30;;;;;;;;;;;5.30;99.90;;;;;;5070216;28;19921;-89
2022/01/30 05:03:28;;;;;;;;;;;5.40;99.90;;;;;;5102269;28;20373;-89
2022/01/30 05:06:04;;;;;;;;;;;4.50;99.90;;;;;;5105234;27;20389;-88
2022/01/30 05:08:30;;;;;;;;;;;4.40;99.90;;;;;;5086730;28;19928;-89
2022/01/30 05:11:00;;;;;;;;;;;4.40;99.90;;;;;;5085453;28;19921;-91
2022/01/30 05:13:30;;;;;;;;;;;4.00;99.90;;;;;;5068992;28;19973;-90
2022/01/30 05:15:58;;;;;;;;;;;4.40;99.90;;;;;;5068484;28;19960;-89
2022/01/30 05:18:25;;;;;;;;;;;4.40;99.90;;;;;;5085396;28;20008;-89
2022/01/30 05:20:53;;;;;;;;;;;4.30;99.90;;;;;;5098599;28;19924;-91
2022/01/30 05:23:18;;;;;;;;;;;5.00;99.90;;;;;;5081678;28;19920;-89
2022/01/30 05:25:47;;;;;;;;;;;4.40;99.90;;;;;;5098359;28;19969;-89
2022/01/30 05:28:13;;;;;;;;;;;4.40;99.90;;;;;;5099107;28;20346;-89
2022/01/30 05:30:46;;;;;;;;;;;4.40;99.90;;;;;;5098638;28;20243;-88
2022/01/30 05:33:14;;;;;;;;;;;4.40;99.90;;;;;;5098261;28;19968;-90
2022/01/30 05:35:40;;;;;;;;;;;4.40;99.90;;;;;;5098576;28;19927;-88
2022/01/30 05:38:08;;;;;;;;;;;4.50;99.90;;;;;;5098165;28;19920;-89
2022/01/30 05:40:37;;;;;;;;;;;6.00;99.90;;;;;;5081421;28;19924;-89
2022/01/30 05:43:03;;;;;;;;;;;5.00;99.90;;;;;;5098753;28;19927;-88
2022/01/30 05:45:55;;;;;;;;;;;4.40;99.90;;;;;;5114250;28;20282;-91
2022/01/30 05:48:23;;;;;;;;;;;4.40;99.90;;;;;;5115175;28;20278;-88
2022/01/30 05:50:48;;;;;;;;;;;4.40;99.90;;;;;;5081433;28;19920;-89
2022/01/30 05:53:25;;;;;;;;;;;4.40;99.90;;;;;;5081706;28;20275;-90
2022/01/30 05:55:51;;;;;;;;;;;6.00;99.90;;;;;;5081135;28;20357;-89
2022/01/30 05:58:19;;;;;;;;;;;5.50;99.90;;;;;;5114929;28;19927;-89
2022/01/30 06:00:49;;;;;;;;;;;4.70;99.90;;;;;;5081255;28;19959;-89
2022/01/30 06:03:15;;;;;;;;;;;3.60;99.90;;;;;;5098265;28;20370;-89
2022/01/30 06:05:48;;;;;;;;;;;8.10;99.90;;;;;;5097824;28;19920;-89
2022/01/30 06:08:39;;;;;;;;;;;4.90;99.90;;;;;;5097748;28;19927;-89
2022/01/30 06:10:59;;;;;;;;;;;5.00;99.90;;;;;;5099719;28;19975;-89
2022/01/30 06:13:32;;;;;;;;;;;4.60;99.90;;;;;;5115021;28;19920;-90
2022/01/30 06:16:02;;;;;;;;;;;6.60;99.90;;;;;;5114324;28;19920;-89
2022/01/30 06:18:28;;;;;;;;;;;5.20;99.90;;;;;;5080878;28;19920;-89
2022/01/30 06:20:58;;;;;;;;;;;5.10;99.90;;;;;;5113967;28;19939;-91
2022/01/30 06:23:29;;;;;;;;;;;6.00;99.90;;;;;;5080801;28;19944;-90
2022/01/30 06:26:02;;;;;;;;;;;6.00;99.90;;;;;;5097558;28;19920;-90
2022/01/30 06:28:27;;;;;;;;;;;5.00;99.90;;;;;;5081424;28;19931;-89
2022/01/30 06:31:04;;;;;;;;;;;6.60;99.90;;;;;;5113995;28;19919;-89
2022/01/30 06:33:32;;;;;;;;;;;6.10;99.90;;;;;;5114118;28;20366;-89
2022/01/30 06:36:08;;;;;;;;;;;4.60;99.90;;;;;;5114588;28;19920;-89
2022/01/30 06:38:36;;;;;;;;;;;5.50;99.90;;;;;;5098921;28;19927;-89
2022/01/30 06:41:09;;;;;;;;;;;4.70;99.90;;;;;;5096958;28;19924;-89
2022/01/30 06:43:37;;;;;;;;;;;4.70;99.90;;;;;;5114247;28;19926;-89
2022/01/30 06:46:10;;;;;;;;;;;4.20;99.90;;;;;;5097103;28;20010;-89
2022/01/30 06:48:40;;;;;;;;;;;4.50;99.90;;;;;;5098182;28;19924;-90
2022/01/30 06:51:08;;;;;;;;;;;5.70;99.90;;;;;;5081361;28;19919;-89
2022/01/30 06:53:34;;;;;;;;;;;5.70;99.90;;;;;;5096654;28;19931;-89
2022/01/30 06:56:02;;;;;;;;;;;4.60;99.90;;;;;;5114668;28;19920;-90
2022/01/30 06:58:27;;;;;;;;;;;6.80;99.90;;;;;;5114023;28;19931;-90
2022/01/30 07:00:53;;;;;;;;;;;6.40;99.90;;;;;;5113781;28;19928;-89
2022/01/30 07:03:21;;;;;;;;;;;4.60;99.90;;;;;;5113725;28;19920;-89
2022/01/30 07:05:57;;;;;;;;;;;5.30;99.90;;;;;;5079929;28;19924;-91
2022/01/30 07:08:35;;;;;;;;;;;6.40;99.90;;;;;;5097319;28;19926;-90
2022/01/30 07:11:14;;;;;;;;;;;;;;;;;;;;;
2022/01/30 07:13:42;;;;;;;;;;;5.60;99.90;;;;;;5099012;28;20370;-90
2022/01/30 07:16:13;;;;;;;;;;;6.80;99.90;;;;;;5097595;28;19927;-89
2022/01/30 07:18:59;;;;;;;;;;;5.00;99.90;;;;;;5080446;28;19920;-89
2022/01/30 07:21:32;;;;;;;;;;;6.40;99.90;;;;;;5082375;28;19938;-90
2022/01/30 07:24:10;;;;;;;;;;;;;;;;;;;;;
2022/01/30 07:26:49;;;;;;;;;;;5.60;99.90;;;;;;5098006;28;19920;-90
2022/01/30 07:29:22;;;;;;;;;;;4.70;99.90;;;;;;5081527;28;19920;-90
2022/01/30 07:31:47;;;;;;;;;;;6.50;99.90;;;;;;5080278;28;19924;-89
2022/01/30 07:34:23;;;;;;;;;;;5.40;99.90;;;;;;5113480;28;20362;-90
2022/01/30 07:37:09;;;;;;;;;;;5.20;99.90;;;;;;5097309;28;19920;-89
2022/01/30 07:39:36;;;;;;;;;;;5.60;99.90;;;;;;5099502;28;20072;-89
2022/01/30 07:42:11;;;;;;;;;;;4.80;99.90;;;;;;5079580;28;20377;-89
2022/01/30 07:44:47;;;;;;;;;;;5.10;99.90;;;;;;5102938;28;19924;-89
2022/01/30 07:47:35;;;;;;;;;;;4.80;99.90;;;;;;5100590;28;19927;-89
2022/01/30 07:50:00;;;;;;;;;;;4.90;99.90;;;;;;5117654;28;20392;-90
2022/01/30 07:52:26;;;;;;;;;;;4.80;99.90;;;;;;5116855;28;19920;-89
2022/01/30 07:54:54;;;;;;;;;;;5.70;99.90;;;;;;5100003;28;20383;-88
2022/01/30 07:57:30;;;;;;;;;;;;;;;;;;;;;
2022/01/30 07:59:58;;;;;;;;;;;6.70;99.90;;;;;;5101826;28;19920;-89
2022/01/30 08:02:26;;;;;;;;;;;6.20;99.90;;;;;;5082750;28;19924;-90
2022/01/30 08:05:02;;;;;;;;;;;6.20;99.90;;;;;;5101170;28;19920;-89
2022/01/30 08:07:39;;;;;;;;;;;4.90;99.40;;;;;;5099640;28;19919;-90
2022/01/30 08:10:25;;;;;;;;;;;6.20;99.90;;;;;;5081266;28;19974;-90
2022/01/30 08:13:14;;;;;;;;;;;5.30;99.90;;;;;;5091744;28;19972;-89
2022/01/30 08:15:44;;;;;;;;;;;6.30;99.90;;;;;;5100120;28;20346;-89
2022/01/30 08:18:25;;;;;;;;;;;3.90;99.90;;;;;;5097501;28;19931;-90
2022/01/30 08:20:53;;;;;;;;;;;5.70;99.90;;;;;;5098404;28;19975;-91
2022/01/30 08:23:29;;;;;;;;;;;6.70;99.90;;;;;;5082373;28;19924;-89
2022/01/30 08:25:57;;;;;;;;;;;5.50;99.90;;;;;;5080789;28;19945;-90
2022/01/30 08:28:25;;;;;;;;;;;5.40;99.90;;;;;;5099927;28;19919;-89
2022/01/30 08:30:51;;;;;;;;;;;6.20;99.90;;;;;;5083048;28;19919;-90
2022/01/30 08:33:19;;;;;;;;;;;5.30;99.90;;;;;;5083267;28;19924;-89
2022/01/30 08:35:47;;;;;;;;;;;5.90;99.90;;;;;;5084341;28;19919;-90
2022/01/30 08:38:18;;;;;;;;;;;6.30;99.90;;;;;;5098947;28;20288;-89
2022/01/30 08:40:44;;;;;;;;;;;6.50;99.90;;;;;;5099958;28;19975;-90
2022/01/30 08:43:10;;;;;;;;;;;6.50;99.90;;;;;;5082115;28;19924;-89
2022/01/30 08:45:36;;;;;;;;;;;5.70;99.90;;;;;;5099106;28;19919;-89
2022/01/30 08:48:01;;;;;;;;;;;5.50;99.90;;;;;;5081634;28;19923;-89
2022/01/30 08:50:29;;;;;;;;;;;5.30;99.90;;;;;;5125389;27;19949;-90
2022/01/30 08:52:55;;;;;;;;;;;5.00;99.90;;;;;;5099391;28;19927;-88
2022/01/30 08:55:20;;;;;;;;;;;6.30;99.90;;;;;;5106287;28;19920;-88
2022/01/30 08:57:46;;;;;;;;;;;6.90;99.90;;;;;;5102817;28;20446;-89
2022/01/30 09:00:15;;;;;;;;;;;6.80;99.90;;;;;;5096287;28;20114;-90
2022/01/30 09:02:43;;;;;;;;;;;6.00;99.90;;;;;;5077132;28;19943;-90
2022/01/30 09:05:26;;;;;;;;;;;7.50;99.90;;;;;;5094510;28;19959;-89
2022/01/30 09:07:59;;;;;;;;;;;6.90;99.90;;;;;;5094375;28;19973;-90
2022/01/30 09:10:27;;;;;;;;;;;6.70;99.90;;;;;;5111365;28;19934;-88
2022/01/30 09:12:53;;;;;;;;;;;7.00;99.90;;;;;;5077558;28;19927;-89
2022/01/30 09:15:21;;;;;;;;;;;5.50;99.90;;;;;;5093989;28;19924;-90
2022/01/30 09:17:46;;;;;;;;;;;6.10;99.90;;;;;;5110716;28;20388;-89
2022/01/30 09:20:22;;;;;;;;;;;5.80;99.90;;;;;;5097061;28;19919;-90
2022/01/30 09:22:53;;;;;;;;;;;5.50;99.90;;;;;;5095295;28;20450;-90
2022/01/30 09:25:21;;;;;;;;;;;6.80;99.90;;;;;;5080599;28;19920;-88
2022/01/30 09:27:47;;;;;;;;;;;7.00;99.90;;;;;;5094118;28;20389;-89
2022/01/30 09:30:12;;;;;;;;;;;7.20;99.90;;;;;;5105366;28;20007;-89
2022/01/30 09:32:38;;;;;;;;;;;6.10;99.90;;;;;;5105455;28;19919;-89
2022/01/30 09:35:13;;;;;;;;;;;7.20;99.90;;;;;;5105771;28;19920;-89
2022/01/30 09:37:38;;;;;;;;;;;6.40;99.90;;;;;;5089406;28;20370;-88
2022/01/30 09:40:04;;;;;;;;;;;6.60;99.90;;;;;;5079275;28;19944;-89
2022/01/30 09:42:37;;;;;;;;;;;6.20;99.90;;;;;;5079476;28;19923;-90
2022/01/30 09:45:05;;;;;;;;;;;5.70;99.90;;;;;;5097336;28;19919;-88
2022/01/30 09:47:31;;;;;;;;;;;6.40;99.90;;;;;;5114609;28;19919;-89
2022/01/30 09:50:06;;;;;;;;;;;6.30;99.90;;;;;;5113892;28;19924;-89
2022/01/30 09:52:32;;;;;;;;;;;6.50;99.90;;;;;;5097904;28;19920;-89
2022/01/30 09:54:57;;;;;;;;;;;6.80;99.90;;;;;;5096715;28;20356;-88
2022/01/30 09:57:25;;;;;;;;;;;6.70;99.90;;;;;;5113603;28;19978;-89
2022/01/30 09:59:56;;;;;;;;;;;7.80;99.90;;;;;;5096855;28;20362;-89
2022/01/30 10:02:26;;;;;;;;;;;8.00;99.90;;;;;;5078277;28;19931;-89
2022/01/30 10:04:51;;;;;;;;;;;7.10;99.90;;;;;;5078859;28;20358;-90
2022/01/30 10:07:26;;;;;;;;;;;6.60;99.90;;;;;;5097092;28;19931;-88
2022/01/30 10:09:59;;;;;;;;;;;6.90;99.90;;;;;;5079595;28;20370;-88
2022/01/30 10:12:33;;;;;;;;;;;8.60;99.40;;;;;;5081225;28;20369;-89
2022/01/30 10:15:00;;;;;;;;;;;8.80;99.90;;;;;;5081258;28;19920;-88
2022/01/30 10:17:34;;;;;;;;;;;7.70;99.90;;;;;;5094601;28;19920;-88
2022/01/30 10:20:00;;;;;;;;;;;7.30;98.70;;;;;;5112683;28;19920;-89
2022/01/30 10:22:28;;;;;;;;;;;7.40;97.00;;;;;;5129996;27;19924;-88
2022/01/30 10:24:53;;;;;;;;;;;7.30;99.80;;;;;;5092131;28;19919;-89
2022/01/30 10:27:22;;;;;;;;;;;7.20;98.40;;;;;;5110035;28;19920;-89
2022/01/30 10:29:58;;;;;;;;;;;8.20;97.90;;;;;;5130306;27;19920;-88
2022/01/30 10:32:26;;;;;;;;;;;7.50;98.40;;;;;;5103565;28;20386;-89
2022/01/30 10:34:58;;;;;;;;;;;8.80;98.40;;;;;;5095687;28;19926;-89
2022/01/30 10:37:24;;;;;;;;;;;7.90;97.60;;;;;;5101878;28;19919;-88
2022/01/30 10:40:11;;;;;;;;;;;9.80;96.60;;;;;;5095517;28;20033;-88
2022/01/30 10:42:42;;;;;;;;;;;8.50;95.70;;;;;;5096642;28;20404;-89
2022/01/30 10:45:16;;;;;;;;;;;8.30;97.50;;;;;;5110046;28;19920;-90
2022/01/30 10:47:42;;;;;;;;;;;8.80;94.80;;;;;;5078946;28;19926;-90
2022/01/30 10:50:16;;;;;;;;;;;7.50;96.90;;;;;;5118016;27;19923;-88
2022/01/30 10:52:49;;;;;;;;;;;7.80;96.30;;;;;;5086119;28;19973;-89
2022/01/30 10:55:15;;;;;;;;;;;7.60;98.50;;;;;;5076221;28;19920;-88
2022/01/30 10:57:43;;;;;;;;;;;7.40;97.00;;;;;;5095306;28;19920;-89
2022/01/30 11:00:11;;;;;;;;;;;8.40;97.80;;;;;;5072967;28;19920;-89
2022/01/30 11:02:51;;;;;;;;;;;7.40;98.80;;;;;;5078114;28;19924;-89
2022/01/30 11:05:17;;;;;;;;;;;7.80;98.50;;;;;;5095466;28;19919;-89
2022/01/30 11:07:42;;;;;;;;;;;8.60;95.80;;;;;;5092107;28;19943;-89
2022/01/30 11:10:22;;;;;;;;;;;10.60;97.30;;;;;;5086706;28;20404;-88
2022/01/30 11:12:57;;;;;;;;;;;10.50;95.70;;;;;;5088029;28;19924;-88
2022/01/30 11:17:56;;;;;;;;;;;13.00;87.30;;;;;;5100693;28;19926;-89
2022/01/30 11:20:23;;;;;;;;;;;12.80;97.10;;;;;;5094692;28;19923;-89
2022/01/30 11:22:51;;;;;;;;;;;12.40;92.20;;;;;;4973964;28;19926;-89
2022/01/30 11:25:19;;;;;;;;;;;12.50;89.30;;;;;;4992849;28;19932;-88
2022/01/30 11:27:47;;;;;;;;;;;12.90;77.40;;;;;;4993383;28;19921;-88
2022/01/30 11:30:15;;;;;;;;;;;12.30;90.40;;;;;;4976197;28;19922;-88
2022/01/30 11:32:40;;;;;;;;;;;12.20;78.60;;;;;;4976575;28;19925;-89
2022/01/30 11:35:08;;;;;;;;;;;13.00;76.80;;;;;;4992322;28;19922;-89
2022/01/30 11:37:36;;;;;;;;;;;12.50;90.30;;;;;;4992204;28;20020;-89
2022/01/30 11:40:22;;;;;;;;;;;13.10;88.90;;;;;;4992541;28;19921;-90
2022/01/30 11:42:49;;;;;;;;;;;12.60;80.50;;;;;;4992605;28;19937;-88
2022/01/30 11:45:24;;;;;;;;;;;12.50;84.70;;;;;;4992906;28;19925;-88
2022/01/30 11:47:52;;;;;;;;;;;12.00;79.20;;;;;;4993261;28;19925;-89
2022/01/30 11:50:25;;;;;;;;;;;11.20;71.80;;;;;;4976247;28;19922;-89
2022/01/30 11:52:50;;;;;;;;;;;10.70;82.10;;;;;;4975862;28;19974;-89
2022/01/30 11:55:35;;;;;;;;;;;9.50;78.90;;;;;;5008933;28;19929;-89
2022/01/30 11:58:03;;;;;;;;;;;9.70;80.30;;;;;;5008597;28;19925;-88
2022/01/30 12:00:40;;;;;;;;;;;10.20;86.80;;;;;;4976816;28;19967;-90
2022/01/30 12:03:41;;;;;;;;;;;9.10;79.80;;;;;;4975803;28;19925;-89
2022/01/30 12:06:19;;;;;;;;;;;8.70;81.20;;;;;;5008472;28;20032;-89
2022/01/30 12:08:47;;;;;;;;;;;8.80;91.50;;;;;;5008058;28;20356;-89
2022/01/30 12:11:32;;;;;;;;;;;9.80;92.40;;;;;;5007896;28;19966;-88
2022/01/30 12:13:57;;;;;;;;;;;8.50;91.80;;;;;;5008540;28;19925;-89
2022/01/30 12:16:42;;;;;;;;;;;8.40;90.00;;;;;;4975729;28;19944;-89
2022/01/30 12:19:17;;;;;;;;;;;8.20;89.50;;;;;;5007760;28;19948;-89
2022/01/30 12:21:43;;;;;;;;;;;8.00;91.10;;;;;;5009333;28;19925;-89
2022/01/30 12:24:21;;;;;;;;;;;7.90;93.00;;;;;;5008209;28;20363;-89
2022/01/30 12:26:50;;;;;;;;;;;7.80;91.10;;;;;;4992235;28;19928;-89
2022/01/30 12:29:36;;;;;;;;;;;7.80;93.40;;;;;;4992985;28;19928;-89
2022/01/30 12:32:29;;;;;;;;;;;8.80;92.80;;;;;;4999023;28;19929;-90
2022/01/30 12:34:55;;;;;;;;;;;8.10;94.00;;;;;;4979376;28;20490;-89
2022/01/30 12:37:23;;;;;;;;;;;8.40;92.80;;;;;;5011463;28;19970;-88
2022/01/30 12:39:52;;;;;;;;;;;9.50;93.90;;;;;;4978617;28;19922;-88
2022/01/30 12:42:20;;;;;;;;;;;8.80;94.50;;;;;;4978616;28;20291;-88
2022/01/30 12:44:46;;;;;;;;;;;9.40;90.70;;;;;;4978277;28;19922;-88
2022/01/30 12:47:12;;;;;;;;;;;9.30;95.30;;;;;;4979187;28;19973;-89
2022/01/30 12:49:49;;;;;;;;;;;9.20;91.40;;;;;;4978354;28;19932;-88
2022/01/30 12:54:55;;;;;;;;;;;8.70;94.70;;;;;;4996253;28;20001;-88
2022/01/30 12:57:21;;;;;;;;;;;8.10;94.20;;;;;;5097038;27;19921;-88
2022/01/30 12:59:53;;;;;;;;;;;8.60;98.90;;;;;;5097257;28;20338;-90
2022/01/30 13:02:19;;;;;;;;;;;8.20;99.70;;;;;;5080235;28;19925;-88
2022/01/30 13:04:45;;;;;;;;;;;8.60;97.00;;;;;;4978408;28;20451;-89
2022/01/30 13:07:11;;;;;;;;;;;9.00;92.90;;;;;;4994150;28;20383;-88
2022/01/30 13:09:36;;;;;;;;;;;9.50;94.20;;;;;;5097199;28;19925;-89
2022/01/30 13:12:12;;;;;;;;;;;8.40;95.10;;;;;;4994384;28;20257;-88
2022/01/30 13:14:38;;;;;;;;;;;8.70;93.30;;;;;;5079381;28;19933;-87
2022/01/30 13:17:06;;;;;;;;;;;8.80;93.80;;;;;;5097454;28;19922;-87
2022/01/30 13:19:38;;;;;;;;;;;8.10;89.30;;;;;;4978034;28;19944;-88
2022/01/30 13:22:05;;;;;;;;;;;7.90;92.10;;;;;;5114266;27;20269;-89
2022/01/30 13:24:30;;;;;;;;;;;7.90;92.00;;;;;;5096730;28;20401;-88
2022/01/30 13:26:56;;;;;;;;;;;7.90;91.80;;;;;;5096934;28;19920;-88
2022/01/30 13:29:22;;;;;;;;;;;8.40;92.10;;;;;;5096625;28;20006;-88
2022/01/30 13:31:51;;;;;;;;;;;9.20;93.10;;;;;;5080317;28;20402;-88
2022/01/30 13:34:21;;;;;;;;;;;7.70;96.30;;;;;;5097035;28;19920;-88
2022/01/30 13:36:54;;;;;;;;;;;7.40;92.80;;;;;;5080061;28;19920;-88
2022/01/30 13:39:26;;;;;;;;;;;7.20;96.20;;;;;;5097954;28;20209;-88
2022/01/30 13:42:01;;;;;;;;;;;7.10;97.00;;;;;;5097274;28;19989;-88
2022/01/30 13:44:53;;;;;;;;;;;7.20;96.40;;;;;;5081040;28;19919;-87
2022/01/30 13:47:19;;;;;;;;;;;7.30;93.30;;;;;;5097658;28;19926;-88
2022/01/30 13:49:49;;;;;;;;;;;7.70;93.80;;;;;;5096725;28;20018;-87
2022/01/30 13:52:15;;;;;;;;;;;9.90;94.60;;;;;;5097317;28;19920;-87
2022/01/30 13:54:40;;;;;;;;;;;9.90;92.30;;;;;;5113318;28;19924;-87
2022/01/30 13:57:06;;;;;;;;;;;9.40;90.20;;;;;;5096170;28;20396;-88
2022/01/30 13:59:32;;;;;;;;;;;8.20;91.60;;;;;;5096224;28;19927;-88
2022/01/30 14:02:06;;;;;;;;;;;8.40;93.50;;;;;;5079322;28;19927;-88
2022/01/30 14:04:35;;;;;;;;;;;8.10;89.80;;;;;;5080252;28;19932;-88
2022/01/30 14:07:03;;;;;;;;;;;7.30;90.00;;;;;;5096626;28;19947;-87
2022/01/30 14:09:35;;;;;;;;;;;7.80;91.50;;;;;;5096316;28;19920;-88
2022/01/30 14:12:05;;;;;;;;;;;7.80;90.20;;;;;;5096593;28;19919;-87
2022/01/30 14:14:34;;;;;;;;;;;7.00;91.20;;;;;;5079528;28;19970;-89
2022/01/30 14:17:00;;;;;;;;;;;7.70;94.00;;;;;;5079523;28;19920;-88
2022/01/30 14:19:28;;;;;;;;;;;7.60;93.30;;;;;;5078968;28;19926;-88
2022/01/30 14:21:57;;;;;;;;;;;6.70;90.70;;;;;;5095874;28;20317;-87
2022/01/30 14:24:24;;;;;;;;;;;7.60;93.10;;;;;;5096711;28;19920;-88
2022/01/30 14:27:07;;;;;;;;;;;6.40;93.70;;;;;;5095961;28;20311;-89
2022/01/30 14:29:33;;;;;;;;;;;6.40;93.90;;;;;;5113028;28;20066;-88
2022/01/30 14:32:01;;;;;;;;;;;6.30;92.00;;;;;;5078727;28;19920;-89
2022/01/30 14:34:27;;;;;;;;;;;5.80;95.70;;;;;;5095938;28;19920;-88
2022/01/30 14:36:59;;;;;;;;;;;7.00;96.30;;;;;;5095556;28;19961;-88
2022/01/30 14:39:25;;;;;;;;;;;5.00;96.30;;;;;;5079387;28;19987;-88
2022/01/30 14:41:51;;;;;;;;;;;5.80;94.90;;;;;;5095669;28;20394;-88
2022/01/30 14:44:18;;;;;;;;;;;5.60;95.90;;;;;;5112695;28;20006;-88
2022/01/30 14:46:43;;;;;;;;;;;7.50;94.40;;;;;;5095518;28;20397;-88
2022/01/30 14:49:09;;;;;;;;;;;6.60;96.20;;;;;;5095217;28;19920;-88
2022/01/30 14:51:35;;;;;;;;;;;5.60;94.90;;;;;;5095300;28;19919;-89
2022/01/30 14:54:00;;;;;;;;;;;5.30;96.00;;;;;;5078166;28;20385;-89
2022/01/30 14:56:26;;;;;;;;;;;6.30;97.20;;;;;;5095904;28;20002;-88
2022/01/30 14:58:51;;;;;;;;;;;5.80;97.20;;;;;;5078240;28;19920;-88
2022/01/30 15:01:20;;;;;;;;;;;5.80;96.80;;;;;;5095313;28;19942;-88
2022/01/30 15:03:45;;;;;;;;;;;5.10;97.00;;;;;;5095769;28;20298;-88
2022/01/30 15:06:11;;;;;;;;;;;5.70;96.90;;;;;;5095112;28;19920;-88
2022/01/30 15:08:37;;;;;;;;;;;5.70;96.90;;;;;;5095313;28;19924;-89
2022/01/30 15:11:02;;;;;;;;;;;7.10;97.20;;;;;;5078426;28;20362;-89
2022/01/30 15:13:28;;;;;;;;;;;6.80;96.70;;;;;;5095007;28;19924;-88
2022/01/30 15:15:56;;;;;;;;;;;5.60;97.70;;;;;;5078052;28;19927;-88
2022/01/30 15:18:29;;;;;;;;;;;6.00;97.90;;;;;;5078333;28;19920;-89
2022/01/30 15:20:55;;;;;;;;;;;6.20;98.50;;;;;;5095035;28;19930;-89
2022/01/30 15:23:20;;;;;;;;;;;6.20;97.40;;;;;;5094802;28;20002;-89
2022/01/30 15:25:46;;;;;;;;;;;7.10;97.50;;;;;;5078456;28;20420;-89
2022/01/30 15:28:11;;;;;;;;;;;7.30;97.90;;;;;;5094812;28;20468;-89
2022/01/30 15:30:37;;;;;;;;;;;6.30;99.10;;;;;;5078467;28;19968;-87
2022/01/30 15:33:10;;;;;;;;;;;6.40;99.00;;;;;;5078274;28;20439;-88